Terminal Aerodrome Forecast
Issued by NWS Wilmington, NC

Home | Current Version | Previous Version | Text Only | Print | Product List | Glossary On
Versions: 1 2 3 4 5 6 7 8 9 10 11 12 13
521
FTUS42 KILM 221213 CCA
TAFFLO
TAF COR
KFLO 221213Z 2212/2312 00000KT 2SM BR SCT250
     FM221300 09006KT P6SM SCT250
     FM221800 12008KT P6SM SCT045
     FM230000 11005KT P6SM BKN100
     FM230800 09003KT 6SM BR BKN050=

USA.gov is the U.S. government's official web portal to all federal, state and local government web resources and services.